Últimos artigos:
Acender um LED com a tensão da rede eléctrica
Programação do Yaesu FT-60 para os EasySats
AO-91 (RadFxSat Fox-1B) está no Ar!
CT7AFR DIY CW-Keyer
Shutdown button for the Raspberry Pi
Simple C code to dump I2C device memory
Últimas fotos:
Últimos METARs:
LPAZ 200200Z 08004KT 9999 FEW015 BKN038 16...
LPFR 200200Z 01004KT CAVOK 14/11 Q1014=
LPHR 192030Z 08006KT 050V140 9999 FEW008 B...
LPLA 200200Z /////KT 9999 FEW030 16/14 Q10...
LPMA 200200Z VRB09KT 9999 SCT015 BKN030 16...
LPPD 200200Z 01003KT 9999 SCT014 SCT030 17...
LPPR 200200Z 07006KT 030V090 CAVOK 18/08 Q...
LPPS 200200Z 36014KT 9999 BKN015 16/10 Q10...
LPPT 200200Z 04010KT 9999 FEW048 14/11 Q10...
Últimos QSOs:
2019/03/09-18:22 6m CT1DMC (RUI)
2019/02/15-12:17 2m CT2IBF (JOSé)
2019/01/18-07:31 40m TM49OTAN (PHIL)
2018/09/08-11:04 40m DJ5AV (MICHAEL)
2018/09/08-11:03 40m M3FEH (KARL)
2018/09/08-11:01 40m EB7HQE (JESUS)
  UTC
Rpi-6 CPU Temp: 31.5 °C (200211Z)
IN51oq 0216Z /////KT //// 21/13 Q1019=
26080